createdAt,value
2019-01-06T00:01:39.676Z,-7.69
2019-01-06T00:06:17.737Z,-7.85
2019-01-06T00:10:54.893Z,-7.62
2019-01-06T00:13:33.865Z,-7.55
2019-01-06T00:16:11.626Z,-7.57
2019-01-06T00:18:52.579Z,-7.60
2019-01-06T00:21:31.035Z,-7.60
2019-01-06T00:24:05.999Z,-7.59
2019-01-06T00:26:40.590Z,-7.64
2019-01-06T00:29:15.534Z,-7.59
2019-01-06T00:31:49.355Z,-7.54
2019-01-06T00:34:26.059Z,-7.50
2019-01-06T00:37:00.725Z,-7.53
2019-01-06T00:39:37.839Z,-7.45
2019-01-06T00:44:16.821Z,-7.34
2019-01-06T00:46:51.873Z,-7.38
2019-01-06T00:49:27.361Z,-7.41
2019-01-06T00:52:02.859Z,-7.40
2019-01-06T00:54:36.596Z,-7.37
2019-01-06T00:58:10.010Z,-7.39
2019-01-06T01:00:44.597Z,-7.61
2019-01-06T01:04:17.163Z,-7.54
2019-01-06T01:06:54.682Z,-7.67
2019-01-06T01:10:35.878Z,-7.98
2019-01-06T01:13:15.716Z,-8.10
2019-01-06T01:15:50.633Z,-8.12
2019-01-06T01:20:32.847Z,-8.00
2019-01-06T01:23:40.805Z,-7.70
2019-01-06T01:26:15.523Z,-7.63
2019-01-06T01:28:50.354Z,-7.57
2019-01-06T01:32:22.462Z,-7.45
2019-01-06T01:35:56.052Z,-7.76
2019-01-06T01:39:30.292Z,-7.87
2019-01-06T01:42:09.836Z,-8.02
2019-01-06T01:44:44.507Z,-7.98
2019-01-06T01:47:22.040Z,-7.64
2019-01-06T01:49:56.775Z,-7.53
2019-01-06T01:52:36.735Z,-7.46
2019-01-06T01:55:11.154Z,-7.36
2019-01-06T01:57:47.038Z,-7.24
2019-01-06T02:00:21.780Z,-7.18
2019-01-06T02:02:56.710Z,-7.17
2019-01-06T02:06:29.142Z,-7.12
2019-01-06T02:09:03.787Z,-7.03
2019-01-06T02:11:37.372Z,-7.04
2019-01-06T02:14:19.835Z,-7.08
2019-01-06T02:17:27.814Z,-7.32
2019-01-06T02:20:07.514Z,-6.95
2019-01-06T02:22:48.336Z,-7.00
2019-01-06T02:26:26.403Z,-7.03
2019-01-06T02:29:12.909Z,-7.06
2019-01-06T02:32:48.459Z,-6.95
2019-01-06T02:35:23.236Z,-6.93
2019-01-06T02:37:57.930Z,-6.92
2019-01-06T02:42:34.968Z,-6.87
2019-01-06T02:45:10.190Z,-6.92
2019-01-06T02:48:47.412Z,-6.89
2019-01-06T02:51:28.491Z,-6.90
2019-01-06T02:54:04.965Z,-6.79
2019-01-06T02:56:39.843Z,-6.74
2019-01-06T02:59:41.288Z,-6.74
2019-01-06T03:02:16.319Z,-6.72
2019-01-06T03:05:25.256Z,-6.61
2019-01-06T03:08:04.076Z,-6.65
2019-01-06T03:11:45.135Z,-6.79
2019-01-06T03:14:21.966Z,-6.72
2019-01-06T03:16:57.392Z,-6.60
2019-01-06T03:19:32.348Z,-6.70
2019-01-06T03:22:07.146Z,-6.67
2019-01-06T03:26:48.878Z,-6.60
2019-01-06T03:29:23.260Z,-6.54
2019-01-06T03:33:02.299Z,-6.52
2019-01-06T03:35:39.932Z,-6.56
2019-01-06T03:38:34.690Z,-6.58
2019-01-06T03:42:10.009Z,-6.44
2019-01-06T03:45:42.738Z,-6.48
2019-01-06T03:48:17.322Z,-6.52
2019-01-06T03:50:52.462Z,-6.55
2019-01-06T03:53:27.477Z,-6.49
2019-01-06T03:57:04.151Z,-6.49
2019-01-06T03:59:42.723Z,-6.46
2019-01-06T04:02:17.633Z,-6.54
2019-01-06T04:04:55.275Z,-6.57
2019-01-06T04:07:33.625Z,-6.67
2019-01-06T04:10:08.584Z,-6.59
2019-01-06T04:12:46.482Z,-6.63
2019-01-06T04:15:21.039Z,-6.66
2019-01-06T04:17:59.551Z,-6.58
2019-01-06T04:22:36.572Z,-6.53
2019-01-06T04:25:19.365Z,-6.51
2019-01-06T04:27:53.999Z,-6.61
2019-01-06T04:31:28.522Z,-6.61
2019-01-06T04:34:03.449Z,-6.66
2019-01-06T04:37:36.964Z,-6.64
2019-01-06T04:40:11.438Z,-6.52
2019-01-06T04:42:50.232Z,-6.38
2019-01-06T04:47:32.016Z,-6.54
2019-01-06T04:50:07.276Z,-6.53
2019-01-06T04:52:47.562Z,-6.52
2019-01-06T04:55:32.071Z,-6.41
2019-01-06T04:59:04.078Z,-6.47
2019-01-06T05:01:39.077Z,-6.54
2019-01-06T05:04:14.119Z,-6.43
2019-01-06T05:06:48.909Z,-6.43
2019-01-06T05:09:37.432Z,-6.60
2019-01-06T05:12:11.363Z,-6.61
2019-01-06T05:14:47.864Z,-6.99
2019-01-06T05:17:23.017Z,-6.39
2019-01-06T05:19:59.521Z,-6.27
2019-01-06T05:23:32.555Z,-6.36
2019-01-06T05:26:07.001Z,-6.44
2019-01-06T05:29:41.163Z,-6.35
2019-01-06T05:32:16.362Z,-6.42
2019-01-06T05:34:51.299Z,-6.41
2019-01-06T05:37:25.715Z,-6.32
2019-01-06T05:40:02.492Z,-6.32
2019-01-06T05:43:41.884Z,-6.30
2019-01-06T05:46:25.118Z,-6.30
2019-01-06T05:48:59.880Z,-6.21
2019-01-06T05:51:34.330Z,-6.13
2019-01-06T05:55:10.695Z,-6.17
2019-01-06T05:57:48.585Z,-6.02
2019-01-06T06:00:29.006Z,-6.07
2019-01-06T06:03:07.651Z,-6.11
2019-01-06T06:07:45.746Z,-6.03
2019-01-06T06:10:25.187Z,-6.21
2019-01-06T06:13:00.017Z,-6.06
2019-01-06T06:15:33.663Z,-6.14
2019-01-06T06:18:13.513Z,-6.11
2019-01-06T06:20:48.091Z,-6.04
2019-01-06T06:24:25.003Z,-5.99
2019-01-06T06:27:06.945Z,-5.93
2019-01-06T06:29:41.604Z,-5.92
2019-01-06T06:32:16.409Z,-5.88
2019-01-06T06:35:49.672Z,-5.93
2019-01-06T06:38:24.194Z,-5.80
2019-01-06T06:43:01.607Z,-5.70
2019-01-06T06:46:07.410Z,-5.70
2019-01-06T06:50:47.638Z,-5.77
2019-01-06T06:53:49.579Z,-5.46
2019-01-06T06:56:28.952Z,-5.40
2019-01-06T07:01:05.618Z,-5.27
2019-01-06T07:03:42.406Z,-4.91
2019-01-06T07:07:17.191Z,-4.59
2019-01-06T07:09:51.813Z,-4.46
2019-01-06T07:12:26.492Z,-4.25
2019-01-06T07:17:03.547Z,-4.29
2019-01-06T07:19:49.358Z,-4.14
2019-01-06T07:22:23.477Z,-4.07
2019-01-06T07:24:58.410Z,-4.01
2019-01-06T07:27:35.152Z,-3.97
2019-01-06T07:30:41.221Z,-3.86
2019-01-06T07:33:26.184Z,-3.77
2019-01-06T07:36:01.674Z,-3.71
2019-01-06T07:39:34.781Z,-3.71
2019-01-06T07:42:11.272Z,-3.56
2019-01-06T07:44:49.836Z,-3.44
2019-01-06T07:47:23.329Z,-3.38
2019-01-06T07:50:30.707Z,-3.30
2019-01-06T07:55:09.890Z,-3.23
2019-01-06T07:57:52.770Z,-3.16
2019-01-06T08:00:27.263Z,-3.18
2019-01-06T08:05:05.767Z,-3.15
2019-01-06T08:09:43.618Z,-3.05
2019-01-06T08:12:19.430Z,-3.01
2019-01-06T08:14:56.097Z,-2.97
2019-01-06T08:17:31.111Z,-2.98
2019-01-06T08:20:16.620Z,-3.05
2019-01-06T08:23:19.692Z,-3.02
2019-01-06T08:25:54.397Z,-3.04
2019-01-06T08:28:29.058Z,-3.02
2019-01-06T08:31:09.848Z,-3.02
2019-01-06T08:33:44.839Z,-3.05
2019-01-06T08:38:27.934Z,-3.08
2019-01-06T08:42:05.368Z,-3.00
2019-01-06T08:44:40.316Z,-3.11
2019-01-06T08:47:15.416Z,-3.08
2019-01-06T08:50:07.967Z,-3.10
2019-01-06T08:52:45.108Z,-2.57
2019-01-06T08:55:19.800Z,-2.62
2019-01-06T08:57:54.814Z,-2.63
2019-01-06T09:01:27.537Z,-2.59
2019-01-06T09:04:19.743Z,-2.62
2019-01-06T09:06:59.468Z,-2.49
2019-01-06T09:09:34.066Z,-2.58
2019-01-06T09:12:12.582Z,-2.24
2019-01-06T09:15:45.637Z,-2.39
2019-01-06T09:19:17.820Z,-2.64
2019-01-06T09:22:11.811Z,-2.79
2019-01-06T09:24:46.430Z,-2.58
2019-01-06T09:27:22.112Z,-2.30
2019-01-06T09:30:56.507Z,-2.46
2019-01-06T09:34:07.240Z,-2.69
2019-01-06T09:38:45.870Z,-2.79
2019-01-06T09:41:19.556Z,-2.76
2019-01-06T09:43:55.978Z,-2.77
2019-01-06T09:46:31.049Z,-2.96
2019-01-06T09:49:05.619Z,-3.04
2019-01-06T09:51:41.183Z,-2.88
2019-01-06T09:54:15.202Z,-2.95
2019-01-06T09:57:24.484Z,-2.90
2019-01-06T10:00:03.884Z,-3.00
2019-01-06T10:02:49.893Z,-3.00
2019-01-06T10:05:27.466Z,-2.89
2019-01-06T10:09:09.646Z,-2.98
2019-01-06T10:13:47.387Z,-2.99
2019-01-06T10:17:24.719Z,-3.02
2019-01-06T10:19:59.533Z,-3.05
2019-01-06T10:22:41.063Z,-3.05
2019-01-06T10:26:18.951Z,-3.03
2019-01-06T10:28:53.520Z,-3.02
2019-01-06T10:31:36.961Z,-2.45
2019-01-06T10:34:13.417Z,-2.03
2019-01-06T10:36:48.455Z,-2.25
2019-01-06T10:39:23.272Z,-2.29
2019-01-06T10:42:12.861Z,-2.23
2019-01-06T10:45:18.920Z,-2.21
2019-01-06T10:47:53.361Z,-2.30
2019-01-06T10:52:35.719Z,-2.43
2019-01-06T10:55:10.799Z,-2.50
2019-01-06T10:58:05.595Z,-2.15
2019-01-06T11:00:42.026Z,-2.16
2019-01-06T11:04:15.360Z,-2.25
2019-01-06T11:06:50.916Z,-2.24
2019-01-06T11:09:30.473Z,-2.32
2019-01-06T11:12:08.036Z,-2.40
2019-01-06T11:14:45.594Z,-2.26
2019-01-06T11:17:28.540Z,-2.27
2019-01-06T11:20:03.498Z,-2.20
2019-01-06T11:22:42.840Z,-2.21
2019-01-06T11:27:24.832Z,-2.16
2019-01-06T11:30:59.083Z,-2.16
2019-01-06T11:34:34.612Z,-2.13
2019-01-06T11:37:41.341Z,-2.19
2019-01-06T11:40:20.418Z,-2.12
2019-01-06T11:42:54.831Z,-2.06
2019-01-06T11:46:29.137Z,-2.03
2019-01-06T11:49:39.783Z,-1.98
2019-01-06T11:52:14.582Z,-1.86
2019-01-06T11:54:51.459Z,-1.84
2019-01-06T11:57:26.457Z,-1.83
2019-01-06T12:00:02.015Z,-1.91
2019-01-06T12:02:49.396Z,-1.90
2019-01-06T12:05:24.784Z,-1.93
2019-01-06T12:08:03.201Z,-1.91
2019-01-06T12:12:41.887Z,-1.80
2019-01-06T12:17:20.090Z,-1.65
2019-01-06T12:20:55.178Z,-1.66
2019-01-06T12:25:32.867Z,-1.75
2019-01-06T12:28:15.317Z,-1.77
2019-01-06T12:31:08.503Z,-1.66
2019-01-06T12:34:42.979Z,-1.63
2019-01-06T12:37:29.258Z,-1.74
2019-01-06T12:42:05.871Z,-1.77
2019-01-06T12:44:44.848Z,-2.00
2019-01-06T12:48:17.765Z,-1.91
2019-01-06T12:50:52.348Z,-2.06
2019-01-06T12:53:26.007Z,-2.09
2019-01-06T12:56:20.776Z,-2.08
2019-01-06T12:58:55.203Z,-2.01
2019-01-06T13:01:31.472Z,-2.24
2019-01-06T13:04:11.911Z,-1.98
2019-01-06T13:07:51.230Z,-1.95
2019-01-06T13:11:32.471Z,-1.89
2019-01-06T13:14:07.324Z,-1.62
2019-01-06T13:16:49.028Z,-1.63
2019-01-06T13:19:29.949Z,-1.57
2019-01-06T13:22:07.867Z,-1.59
2019-01-06T13:24:44.466Z,-1.52
2019-01-06T13:27:28.215Z,-1.53
2019-01-06T13:30:19.820Z,-1.61
2019-01-06T13:32:57.373Z,-1.58
2019-01-06T13:35:32.128Z,-1.58
2019-01-06T13:38:06.872Z,-1.54
2019-01-06T13:42:49.973Z,-1.59
2019-01-06T13:45:24.935Z,-1.66
2019-01-06T13:47:59.488Z,-1.57
2019-01-06T13:50:34.341Z,-1.63
2019-01-06T13:53:09.104Z,-1.54
2019-01-06T13:56:44.267Z,-1.60
2019-01-06T13:59:21.664Z,-1.60
2019-01-06T14:02:54.892Z,-1.57
2019-01-06T14:05:33.468Z,-1.45
2019-01-06T14:08:08.647Z,-1.43
2019-01-06T14:10:46.691Z,-1.48
2019-01-06T14:14:25.782Z,-1.53
2019-01-06T14:17:00.591Z,-1.48
2019-01-06T14:20:34.936Z,-1.50
2019-01-06T14:23:09.719Z,-1.46
2019-01-06T14:25:51.675Z,-1.35
2019-01-06T14:28:26.349Z,-1.38
2019-01-06T14:31:01.205Z,-1.37
2019-01-06T14:33:35.851Z,-1.39
2019-01-06T14:37:12.326Z,-1.37
2019-01-06T14:39:50.031Z,-1.36
2019-01-06T14:42:29.733Z,-1.30
2019-01-06T14:45:04.476Z,-1.26
2019-01-06T14:48:37.188Z,-1.20
2019-01-06T14:51:19.852Z,-1.05
2019-01-06T14:53:54.422Z,-1.18
2019-01-06T14:57:28.469Z,-1.16
2019-01-06T15:00:03.478Z,-1.26
2019-01-06T15:02:38.384Z,-1.65
2019-01-06T15:06:21.084Z,-1.36
2019-01-06T15:09:02.560Z,-1.45
2019-01-06T15:11:38.374Z,-1.52
2019-01-06T15:14:15.899Z,-1.56
2019-01-06T15:16:56.745Z,-1.56
2019-01-06T15:20:29.185Z,-1.61
2019-01-06T15:23:11.418Z,-1.72
2019-01-06T15:27:51.004Z,-1.72
2019-01-06T15:30:30.378Z,-1.80
2019-01-06T15:33:06.707Z,-1.79
2019-01-06T15:36:13.980Z,-1.84
2019-01-06T15:38:52.248Z,-2.19
2019-01-06T15:41:26.239Z,-1.93
2019-01-06T15:44:04.879Z,-1.99
2019-01-06T15:46:46.607Z,-2.03
2019-01-06T15:50:21.866Z,-2.13
2019-01-06T15:52:56.956Z,-2.19
2019-01-06T15:55:31.671Z,-2.17
2019-01-06T15:58:06.467Z,-2.13
2019-01-06T16:00:41.372Z,-1.91
2019-01-06T16:05:18.247Z,-2.04
2019-01-06T16:07:59.008Z,-2.12
2019-01-06T16:10:34.290Z,-2.14
2019-01-06T16:30:29.131Z,-2.39
2019-01-06T16:33:04.470Z,-2.36
2019-01-06T16:35:41.087Z,-2.38
2019-01-06T16:38:15.731Z,-2.53
2019-01-06T16:40:59.979Z,-2.43
2019-01-06T16:43:34.844Z,-2.58
2019-01-06T16:47:07.079Z,-2.60
2019-01-06T16:49:42.060Z,-2.66
2019-01-06T16:52:23.317Z,-2.66
2019-01-06T16:57:04.763Z,-2.55
2019-01-06T16:59:39.544Z,-2.73
2019-01-06T17:02:14.003Z,-2.78
2019-01-06T17:04:57.501Z,-2.87
2019-01-06T17:08:35.019Z,-2.85
2019-01-06T17:13:14.430Z,-2.85
2019-01-06T17:33:25.348Z,-2.88
2019-01-06T17:36:00.044Z,-2.98
2019-01-06T17:38:34.971Z,-2.97
2019-01-06T17:41:25.345Z,-2.94
2019-01-06T18:01:19.703Z,-2.89
2019-01-06T18:03:53.997Z,-2.98
2019-01-06T18:24:21.062Z,-2.84
2019-01-06T18:26:58.347Z,-2.85
2019-01-06T18:30:39.177Z,-2.77
2019-01-06T18:33:31.786Z,-2.79
2019-01-06T18:53:37.215Z,-3.01
2019-01-06T18:56:17.673Z,-3.07
2019-01-06T18:58:52.713Z,-3.00
2019-01-06T19:01:31.646Z,-3.02
2019-01-06T19:21:33.003Z,-3.02
2019-01-06T19:41:33.884Z,-2.99
2019-01-06T19:44:08.715Z,-2.99
2019-01-06T19:48:45.378Z,-3.02
2019-01-06T19:51:28.282Z,-3.01
2019-01-06T19:54:06.475Z,-3.04
2019-01-06T19:57:47.207Z,-3.01
2019-01-06T20:00:20.435Z,-3.16
2019-01-06T20:03:29.946Z,-3.07
2019-01-06T20:06:04.598Z,-3.18
2019-01-06T20:25:58.424Z,-3.15
2019-01-06T20:28:33.085Z,-3.12
2019-01-06T20:48:26.859Z,-3.07
2019-01-06T20:51:02.665Z,-3.10
2019-01-06T20:53:56.387Z,-3.16
2019-01-06T20:58:33.191Z,-3.13
2019-01-06T21:18:31.086Z,-3.29
2019-01-06T21:21:19.487Z,-3.27
2019-01-06T21:24:02.960Z,-3.27
2019-01-06T21:26:37.333Z,-3.31
2019-01-06T22:04:06.211Z,-3.35
2019-01-06T22:08:43.523Z,-3.36
2019-01-06T22:29:46.039Z,-3.47
2019-01-06T22:32:21.006Z,-3.47
2019-01-06T22:34:55.311Z,-3.51
2019-01-06T22:37:30.071Z,-3.70
2019-01-06T22:57:31.407Z,-3.52
2019-01-06T23:00:06.291Z,-3.53
2019-01-06T23:02:45.753Z,-3.58
2019-01-06T23:05:28.085Z,-3.56
2019-01-06T23:08:11.817Z,-3.55
2019-01-06T23:10:46.560Z,-3.65
2019-01-06T23:32:44.711Z,-3.68
2019-01-06T23:52:39.376Z,-3.69
